Molt, MT (59057)

6:48 AM MDT on July 03, 2015 (GMT -0600)
Billings Flying Mustangs | | Change Station
CLOSE
Current Station
Personal Weather Station
Location: Billings, MT
Elevation: 3504 ft
Nearby Weather Stations

Elev 3504 ft 45.79 °N, 108.73 °W | Updated 32 seconds ago

Clear
Clear
66.5 °F
Feels Like 66.5 °F
N
0.0
Wind Variable Wind from NNE
Gusts 0.0 mph

Today
High -- | Low -- °F
--% Chance of Precip.
Yesterday
High -- | Low -- °F
Precip. -- in
5:30 AM 9:08 PM
Full, 97% visible
Pressure 29.97 in
Visibility 5.0 miles
Clouds Few 10000 ft
Dew Point 50 °F
Humidity 56%
Rainfall 0.00 in
Snow Depth Not available.
UV 0 out of 12
Pollen 5.50 out of 12
Air Quality Not available.
Flu Activity Not available.
METAR KBIL 031153Z 00000KT 5SM HZ FEW100 17/10 A3006 RMK AO2 SLP147 HZ ALQDS T01720100 10217 20161 58004

More Conditions Fewer Conditions

Pressure 29.97 in
Visibility 5.0 miles
Clouds Few 10000 ft
Dew Point 50 °F
Humidity 56%
Rainfall 0.00 in
Snow Depth Not available.
UV 0 out of 12
Pollen 5.50 out of 12
Air Quality Not available.
Flu Activity Not available.
METAR KBIL 031153Z 00000KT 5SM HZ FEW100 17/10 A3006 RMK AO2 SLP147 HZ ALQDS T01720100 10217 20161 58004

More Conditions Fewer Conditions

10-Day Weather Forecast

×

Almanac

Astronomy

Jul. 03, 2015 Rise Set
Actual Time
Civil Twilight
Nautical Twilight
Astronomical Twilight
Moon
Length of Visible Light
Length of Day
Tomorrow will be .
, % of the Moon is Illuminated

Today's Extremes

State Highs State Lows

Community

WunderPhotos

Upload Photos

1,834,660 photos uploaded!

WunderBlogs® & News

Nearby

Air Quality

  Air Quality AQ Index Pollutant
Not available.

Snow Depth

Station Depth Elevation

Earthquake Activity

City Distance Mag. Time & Date
Minimum magnitude displayed is 2.5.

Coastal Water Temperatures

Place Temperature

Stations

Nearby Weather Stations

Station Location Temp. Windchill Dew Point Humidity Wind Precip. Elev Updated Type